createdAt,value
2017-10-30T00:00:16.595Z,931.98
2017-10-30T00:00:44.555Z,931.95
2017-10-30T00:01:12.691Z,931.99
2017-10-30T00:01:40.846Z,932
2017-10-30T00:02:08.740Z,932
2017-10-30T00:02:36.710Z,931.97
2017-10-30T00:03:04.860Z,931.95
2017-10-30T00:03:32.812Z,931.94
2017-10-30T00:04:00.719Z,931.96
2017-10-30T00:04:28.776Z,931.94
2017-10-30T00:04:56.712Z,931.96
2017-10-30T00:05:24.859Z,931.95
2017-10-30T00:05:52.895Z,931.96
2017-10-30T00:06:21.040Z,931.99
2017-10-30T00:06:49.322Z,931.97
2017-10-30T00:07:17.446Z,932
2017-10-30T00:07:45.466Z,931.99
2017-10-30T00:08:13.487Z,931.98
2017-10-30T00:08:41.694Z,932
2017-10-30T00:09:10.302Z,931.97
2017-10-30T00:09:38.946Z,931.99
2017-10-30T00:10:07.538Z,931.97
2017-10-30T00:10:36.078Z,931.98
2017-10-30T00:11:04.683Z,931.97
2017-10-30T00:11:33.188Z,931.96
2017-10-30T00:12:01.767Z,931.95
2017-10-30T00:12:30.304Z,931.99
2017-10-30T00:12:58.722Z,931.96
2017-10-30T00:13:27.247Z,931.96
2017-10-30T00:13:55.552Z,931.96
2017-10-30T00:14:24.189Z,931.97
2017-10-30T00:14:52.617Z,931.97
2017-10-30T00:15:21.248Z,931.97
2017-10-30T00:15:49.653Z,931.98
2017-10-30T00:16:18.047Z,931.98
2017-10-30T00:16:46.481Z,931.94
2017-10-30T00:17:15.095Z,931.97
2017-10-30T00:17:43.625Z,931.97
2017-10-30T00:18:12.056Z,931.99
2017-10-30T00:18:40.694Z,931.98
2017-10-30T00:19:09.314Z,931.96
2017-10-30T00:19:37.932Z,931.97
2017-10-30T00:20:06.463Z,931.93
2017-10-30T00:20:34.890Z,931.89
2017-10-30T00:21:03.423Z,931.88
2017-10-30T00:21:31.859Z,931.91
2017-10-30T00:22:00.448Z,931.9
2017-10-30T00:22:29.031Z,931.89
2017-10-30T00:22:57.662Z,931.91
2017-10-30T00:23:26.156Z,931.93
2017-10-30T00:23:54.640Z,931.91
2017-10-30T00:24:23.172Z,931.91
2017-10-30T00:24:51.614Z,931.93
2017-10-30T00:25:20.968Z,931.92
2017-10-30T00:25:49.586Z,931.95
2017-10-30T00:26:18.011Z,931.9
2017-10-30T00:26:46.604Z,931.94
2017-10-30T00:27:15.211Z,931.96
2017-10-30T00:27:43.852Z,931.9
2017-10-30T00:28:12.364Z,931.91
2017-10-30T00:28:40.881Z,931.91
2017-10-30T00:29:09.370Z,931.91
2017-10-30T00:29:37.883Z,931.86
2017-10-30T00:30:06.398Z,931.84
2017-10-30T00:30:34.917Z,931.83
2017-10-30T00:31:03.397Z,931.79
2017-10-30T00:31:31.981Z,931.82
2017-10-30T00:32:00.601Z,931.77
2017-10-30T00:32:29.208Z,931.78
2017-10-30T00:32:57.748Z,931.76
2017-10-30T00:33:26.204Z,931.73
2017-10-30T00:33:54.807Z,931.74
2017-10-30T00:34:23.340Z,931.72
2017-10-30T00:34:51.975Z,931.7
2017-10-30T00:35:20.503Z,931.69
2017-10-30T00:35:48.911Z,931.69
2017-10-30T00:36:17.445Z,931.66
2017-10-30T00:36:45.953Z,931.68
2017-10-30T00:37:14.545Z,931.69
2017-10-30T00:37:43.030Z,931.7
2017-10-30T00:38:11.433Z,931.71
2017-10-30T00:38:40.028Z,931.68
2017-10-30T00:39:08.440Z,931.72
2017-10-30T00:39:36.864Z,931.7
2017-10-30T00:40:05.506Z,931.71
2017-10-30T00:40:34.124Z,931.7
2017-10-30T00:41:02.529Z,931.72
2017-10-30T00:41:31.130Z,931.71
2017-10-30T00:41:59.538Z,931.71
2017-10-30T00:42:28.172Z,931.71
2017-10-30T00:42:56.689Z,931.76
2017-10-30T00:43:25.232Z,931.74
2017-10-30T00:43:53.851Z,931.79
2017-10-30T00:44:23.711Z,931.77
2017-10-30T00:44:52.226Z,931.83
2017-10-30T00:45:20.822Z,931.83
2017-10-30T00:45:49.444Z,931.84
2017-10-30T00:46:17.965Z,931.84
2017-10-30T00:46:46.558Z,931.88
2017-10-30T00:47:15.429Z,931.87
2017-10-30T00:47:44.058Z,931.9
2017-10-30T00:48:12.554Z,931.94
2017-10-30T00:48:41.171Z,931.91
2017-10-30T00:49:09.668Z,931.96
2017-10-30T00:49:38.176Z,931.92
2017-10-30T00:50:06.701Z,931.93
2017-10-30T00:50:35.341Z,931.94
2017-10-30T00:51:03.854Z,931.94
2017-10-30T00:51:32.292Z,931.91
2017-10-30T00:52:00.897Z,931.91
2017-10-30T00:52:29.421Z,931.89
2017-10-30T00:52:58.021Z,931.88
2017-10-30T00:53:26.648Z,931.88
2017-10-30T00:53:55.150Z,931.85
2017-10-30T00:54:23.563Z,931.84
2017-10-30T00:54:52.166Z,931.81
2017-10-30T00:55:20.797Z,931.77
2017-10-30T00:55:49.516Z,931.8
2017-10-30T00:56:18.032Z,931.81
2017-10-30T00:56:46.545Z,931.79
2017-10-30T00:57:35.204Z,931.81
2017-10-30T00:58:03.816Z,931.73
2017-10-30T00:58:32.206Z,931.78
2017-10-30T00:59:00.588Z,931.73
2017-10-30T00:59:28.861Z,931.72
2017-10-30T00:59:57.196Z,931.69
2017-10-30T01:00:25.466Z,931.7
2017-10-30T01:00:53.794Z,931.67
2017-10-30T01:01:22.416Z,931.71
2017-10-30T01:01:51.060Z,931.67
2017-10-30T01:02:19.589Z,931.66
2017-10-30T01:02:48.119Z,931.64
2017-10-30T01:03:16.632Z,931.68
2017-10-30T01:03:50.120Z,931.69
2017-10-30T01:04:18.465Z,931.68
2017-10-30T01:04:46.969Z,931.71
2017-10-30T01:05:15.668Z,931.73
2017-10-30T01:05:44.087Z,931.77
2017-10-30T01:06:12.702Z,931.79
2017-10-30T01:06:41.217Z,931.8
2017-10-30T01:07:09.733Z,931.81
2017-10-30T01:07:38.132Z,931.8
2017-10-30T01:08:06.611Z,931.84
2017-10-30T01:08:35.154Z,931.83
2017-10-30T01:09:03.659Z,931.84
2017-10-30T01:09:32.176Z,931.87
2017-10-30T01:10:00.591Z,931.85
2017-10-30T01:10:29.203Z,931.84
2017-10-30T01:10:57.748Z,931.82
2017-10-30T01:11:26.410Z,931.86
2017-10-30T01:11:55.054Z,931.86
2017-10-30T01:12:23.777Z,931.87
2017-10-30T01:12:52.552Z,931.87
2017-10-30T01:13:21.258Z,931.88
2017-10-30T01:13:49.889Z,931.89
2017-10-30T01:14:18.511Z,931.87
2017-10-30T01:14:46.924Z,931.9
2017-10-30T01:15:15.501Z,931.91
2017-10-30T01:15:44.132Z,931.95
2017-10-30T01:16:12.723Z,931.92
2017-10-30T01:16:41.136Z,931.94
2017-10-30T01:17:09.763Z,931.96
2017-10-30T01:17:38.291Z,931.99
2017-10-30T01:18:06.808Z,931.98
2017-10-30T01:18:35.403Z,931.96
2017-10-30T01:19:03.902Z,931.94
2017-10-30T01:19:32.510Z,931.98
2017-10-30T01:20:01.140Z,931.98
2017-10-30T01:20:29.537Z,931.98
2017-10-30T01:20:58.054Z,931.98
2017-10-30T01:21:26.570Z,931.95
2017-10-30T01:21:55.169Z,931.91
2017-10-30T01:22:23.545Z,931.93
2017-10-30T01:22:52.154Z,931.93
2017-10-30T01:23:20.638Z,931.96
2017-10-30T01:23:49.186Z,931.95
2017-10-30T01:24:17.727Z,931.92
2017-10-30T01:24:46.235Z,931.93
2017-10-30T01:25:14.815Z,931.95
2017-10-30T01:25:43.226Z,931.93
2017-10-30T01:26:11.736Z,931.93
2017-10-30T01:26:40.344Z,931.93
2017-10-30T01:27:08.973Z,931.93
2017-10-30T01:27:37.510Z,931.92
2017-10-30T01:28:06.033Z,931.92
2017-10-30T01:28:34.430Z,931.94
2017-10-30T01:29:02.847Z,931.95
2017-10-30T01:29:31.465Z,931.94
2017-10-30T01:30:00.092Z,931.93
2017-10-30T01:30:28.604Z,931.95
2017-10-30T01:30:57.180Z,931.94
2017-10-30T01:31:25.750Z,931.92
2017-10-30T01:31:54.339Z,931.87
2017-10-30T01:32:22.854Z,931.88
2017-10-30T01:32:51.396Z,931.89
2017-10-30T01:33:20.131Z,931.86
2017-10-30T01:33:48.770Z,931.8
2017-10-30T01:34:17.505Z,931.81
2017-10-30T01:34:46.116Z,931.78
2017-10-30T01:35:14.734Z,931.74
2017-10-30T01:35:43.371Z,931.77
2017-10-30T01:36:11.899Z,931.72
2017-10-30T01:36:40.480Z,931.72
2017-10-30T01:37:09.126Z,931.7
2017-10-30T01:37:37.716Z,931.69
2017-10-30T01:38:06.348Z,931.7
2017-10-30T01:38:35.028Z,931.69
2017-10-30T01:39:03.678Z,931.67
2017-10-30T01:39:32.232Z,931.71
2017-10-30T01:40:00.967Z,931.7
2017-10-30T01:40:29.675Z,931.73
2017-10-30T01:40:58.319Z,931.72
2017-10-30T01:41:27.010Z,931.76
2017-10-30T01:41:55.633Z,931.78
2017-10-30T01:42:24.267Z,931.8
2017-10-30T01:42:52.867Z,931.84
2017-10-30T01:43:21.500Z,931.78
2017-10-30T01:43:50.006Z,931.79
2017-10-30T01:44:18.555Z,931.79
2017-10-30T01:44:47.188Z,931.81
2017-10-30T01:45:15.835Z,931.81
2017-10-30T01:45:44.472Z,931.85
2017-10-30T01:46:13.091Z,931.78
2017-10-30T01:46:41.649Z,931.82
2017-10-30T01:47:10.287Z,931.77
2017-10-30T01:47:38.928Z,931.77
2017-10-30T01:48:07.463Z,931.78
2017-10-30T01:48:36.081Z,931.74
2017-10-30T01:49:04.706Z,931.75
2017-10-30T01:49:33.279Z,931.73
2017-10-30T01:50:01.760Z,931.72
2017-10-30T01:50:30.235Z,931.7
2017-10-30T01:50:58.847Z,931.71
2017-10-30T01:51:28.340Z,931.68
2017-10-30T01:51:59.342Z,931.67
2017-10-30T01:52:27.671Z,931.67
2017-10-30T01:52:55.943Z,931.66
2017-10-30T01:53:24.321Z,931.64
2017-10-30T01:53:52.515Z,931.62
2017-10-30T01:54:20.798Z,931.6
2017-10-30T01:55:21.233Z,931.6
2017-10-30T01:55:49.734Z,931.57
2017-10-30T01:56:18.221Z,931.58
2017-10-30T01:56:46.820Z,931.56
2017-10-30T01:57:15.313Z,931.54
2017-10-30T01:57:44.658Z,931.54
2017-10-30T01:58:13.308Z,931.55
2017-10-30T01:58:41.817Z,931.52
2017-10-30T01:59:10.325Z,931.53
2017-10-30T01:59:38.849Z,931.52
2017-10-30T02:00:07.450Z,931.5
2017-10-30T02:00:35.826Z,931.5
2017-10-30T02:01:04.254Z,931.49
2017-10-30T02:01:32.885Z,931.46
2017-10-30T02:02:01.408Z,931.49
2017-10-30T02:02:29.937Z,931.49
2017-10-30T02:02:58.547Z,931.47
2017-10-30T02:03:27.154Z,931.43
2017-10-30T02:03:55.444Z,931.45
2017-10-30T02:04:24.067Z,931.45
2017-10-30T02:04:52.688Z,931.47
2017-10-30T02:05:21.259Z,931.48
2017-10-30T02:05:49.913Z,931.45
2017-10-30T02:06:18.422Z,931.47
2017-10-30T02:06:47.001Z,931.45
2017-10-30T02:07:15.607Z,931.45
2017-10-30T02:07:44.091Z,931.44
2017-10-30T02:08:12.597Z,931.44
2017-10-30T02:08:41.111Z,931.44
2017-10-30T02:09:09.713Z,931.43
2017-10-30T02:09:38.217Z,931.42
2017-10-30T02:10:06.905Z,931.4
2017-10-30T02:10:35.724Z,931.34
2017-10-30T02:11:04.217Z,931.32
2017-10-30T02:11:32.755Z,931.3
2017-10-30T02:12:01.357Z,931.3
2017-10-30T02:12:29.787Z,931.27
2017-10-30T02:12:58.357Z,931.22
2017-10-30T02:13:26.844Z,931.16
2017-10-30T02:13:57.895Z,931.16
2017-10-30T02:14:26.409Z,931.18
2017-10-30T02:14:55.005Z,931.1
2017-10-30T02:15:23.403Z,931.08
2017-10-30T02:15:51.910Z,931.07
2017-10-30T02:16:20.497Z,931.07
2017-10-30T02:16:49.014Z,931.08
2017-10-30T02:17:17.430Z,931.1
2017-10-30T02:17:46.677Z,931.06
2017-10-30T02:18:15.331Z,931.08
2017-10-30T02:18:43.835Z,931.07
2017-10-30T02:19:12.326Z,931.09
2017-10-30T02:19:40.735Z,931.13
2017-10-30T02:20:09.163Z,931.16
2017-10-30T02:20:37.696Z,931.14
2017-10-30T02:21:06.360Z,931.2
2017-10-30T02:21:34.873Z,931.2
2017-10-30T02:22:03.348Z,931.21
2017-10-30T02:22:31.741Z,931.22
2017-10-30T02:23:00.271Z,931.22
2017-10-30T02:23:28.899Z,931.23
2017-10-30T02:23:57.409Z,931.23
2017-10-30T02:24:26.026Z,931.21
2017-10-30T02:24:54.749Z,931.18
2017-10-30T02:25:23.550Z,931.2
2017-10-30T02:25:52.182Z,931.17
2017-10-30T02:26:20.907Z,931.2
2017-10-30T02:26:49.772Z,931.16
2017-10-30T02:27:18.362Z,931.17
2017-10-30T02:27:46.982Z,931.17
2017-10-30T02:28:15.519Z,931.17
2017-10-30T02:28:44.020Z,931.16
2017-10-30T02:29:12.614Z,931.14
2017-10-30T02:29:41.136Z,931.12
2017-10-30T02:30:09.766Z,931.15
2017-10-30T02:30:38.273Z,931.14
2017-10-30T02:31:06.767Z,931.14
2017-10-30T02:31:35.395Z,931.08
2017-10-30T02:32:04.020Z,931.08
2017-10-30T02:32:32.627Z,931.03
2017-10-30T02:33:01.161Z,931.06
2017-10-30T02:33:29.795Z,931.04
2017-10-30T02:33:58.385Z,931.01
2017-10-30T02:34:27.000Z,931.03
2017-10-30T02:34:55.791Z,931.01
2017-10-30T02:35:24.208Z,930.97
2017-10-30T02:35:52.829Z,930.98
2017-10-30T02:36:21.314Z,930.95
2017-10-30T02:36:49.940Z,930.98
2017-10-30T02:37:18.582Z,930.97
2017-10-30T02:37:47.163Z,930.99
2017-10-30T02:38:15.855Z,930.98
2017-10-30T02:38:44.462Z,930.99
2017-10-30T02:39:13.065Z,930.99
2017-10-30T02:39:41.563Z,931
2017-10-30T02:40:10.164Z,931
2017-10-30T02:40:38.803Z,931
2017-10-30T02:41:07.408Z,930.98
2017-10-30T02:41:35.883Z,931.01
2017-10-30T02:42:04.301Z,931.01
2017-10-30T02:42:32.894Z,931.03
2017-10-30T02:43:01.404Z,930.96
2017-10-30T02:43:29.990Z,930.96
2017-10-30T02:43:58.582Z,930.96
2017-10-30T02:44:26.986Z,930.96
2017-10-30T02:44:55.496Z,930.92
2017-10-30T02:45:24.017Z,930.9
2017-10-30T02:45:52.652Z,930.9
2017-10-30T02:46:21.148Z,930.89
2017-10-30T02:46:49.749Z,930.84
2017-10-30T02:47:18.349Z,930.9
2017-10-30T02:47:46.742Z,930.88
2017-10-30T02:48:15.278Z,930.85
2017-10-30T02:48:43.871Z,930.87
2017-10-30T02:49:12.510Z,930.89
2017-10-30T02:49:41.123Z,930.88
2017-10-30T02:50:09.745Z,930.89
2017-10-30T02:50:38.143Z,930.92
2017-10-30T02:51:06.642Z,930.91
2017-10-30T02:51:35.233Z,930.92
2017-10-30T02:52:03.786Z,930.95
2017-10-30T02:52:32.286Z,930.96
2017-10-30T02:53:00.908Z,930.96
2017-10-30T02:53:29.424Z,930.97
2017-10-30T02:53:57.853Z,930.99
2017-10-30T02:54:26.455Z,930.99
2017-10-30T02:54:54.995Z,930.99
2017-10-30T02:55:23.596Z,930.99
2017-10-30T02:55:52.225Z,930.98
2017-10-30T02:56:20.744Z,931
2017-10-30T02:56:49.269Z,930.98
2017-10-30T02:57:17.640Z,931.01
2017-10-30T02:57:46.273Z,931.07
2017-10-30T02:58:14.869Z,931.04
2017-10-30T02:58:43.469Z,931
2017-10-30T02:59:11.964Z,930.99
2017-10-30T02:59:40.596Z,931.04
2017-10-30T03:00:09.134Z,931.02
2017-10-30T03:00:37.662Z,930.98
2017-10-30T03:01:06.199Z,931
2017-10-30T03:01:34.679Z,930.96
2017-10-30T03:02:03.269Z,930.93
2017-10-30T03:02:31.859Z,930.95
2017-10-30T03:03:00.335Z,930.88
2017-10-30T03:03:28.890Z,930.9
2017-10-30T03:03:57.539Z,930.85
2017-10-30T03:04:26.197Z,930.79
2017-10-30T03:04:54.765Z,930.77
2017-10-30T03:05:23.286Z,930.74
2017-10-30T03:05:51.693Z,930.76
2017-10-30T03:06:20.305Z,930.76
2017-10-30T03:06:48.942Z,930.72
2017-10-30T03:07:17.383Z,930.78
2017-10-30T03:07:45.991Z,930.78
2017-10-30T03:08:14.605Z,930.74
2017-10-30T03:08:43.125Z,930.73
2017-10-30T03:09:11.945Z,930.72
2017-10-30T03:09:40.616Z,930.74
2017-10-30T03:10:09.134Z,930.74
2017-10-30T03:10:37.645Z,930.75
2017-10-30T03:11:06.257Z,930.73
2017-10-30T03:11:34.689Z,930.72
2017-10-30T03:12:03.253Z,930.69
2017-10-30T03:12:31.772Z,930.72
2017-10-30T03:13:00.393Z,930.72
2017-10-30T03:13:29.000Z,930.7
2017-10-30T03:13:57.615Z,930.73
2017-10-30T03:14:26.125Z,930.72
2017-10-30T03:14:54.635Z,930.69
2017-10-30T03:15:23.168Z,930.73
2017-10-30T03:15:51.780Z,930.7
2017-10-30T03:16:20.394Z,930.77
2017-10-30T03:16:48.923Z,930.75
2017-10-30T03:17:17.543Z,930.79
2017-10-30T03:17:46.177Z,930.76
2017-10-30T03:18:14.807Z,930.78
2017-10-30T03:18:43.443Z,930.75
2017-10-30T03:19:11.912Z,930.75
2017-10-30T03:19:40.552Z,930.76
2017-10-30T03:20:09.080Z,930.74
2017-10-30T03:20:37.592Z,930.7
2017-10-30T03:21:06.522Z,930.68
2017-10-30T03:21:42.139Z,930.65
2017-10-30T03:22:10.654Z,930.67
2017-10-30T03:22:39.183Z,930.62
2017-10-30T03:23:07.809Z,930.62
2017-10-30T03:23:36.292Z,930.58
2017-10-30T03:24:04.817Z,930.61
2017-10-30T03:24:33.355Z,930.57
2017-10-30T03:25:01.850Z,930.56
2017-10-30T03:25:30.415Z,930.54
2017-10-30T03:25:59.054Z,930.58
2017-10-30T03:26:27.592Z,930.53
2017-10-30T03:26:56.182Z,930.56
2017-10-30T03:27:24.495Z,930.55
2017-10-30T03:27:53.094Z,930.58
2017-10-30T03:28:21.700Z,930.56
2017-10-30T03:28:50.337Z,930.55
2017-10-30T03:29:18.964Z,930.56
2017-10-30T03:29:47.390Z,930.54
2017-10-30T03:30:15.965Z,930.54
2017-10-30T03:30:44.605Z,930.49
2017-10-30T03:31:13.149Z,930.53
2017-10-30T03:31:41.772Z,930.51
2017-10-30T03:32:10.374Z,930.51
2017-10-30T03:32:38.894Z,930.51
2017-10-30T03:33:07.443Z,930.5
2017-10-30T03:33:35.949Z,930.48
2017-10-30T03:34:04.554Z,930.51
2017-10-30T03:34:32.964Z,930.53
2017-10-30T03:35:01.458Z,930.49
2017-10-30T03:35:30.088Z,930.47
2017-10-30T03:35:58.694Z,930.47
2017-10-30T03:36:27.186Z,930.5
2017-10-30T03:36:55.810Z,930.47
2017-10-30T03:37:24.226Z,930.47
2017-10-30T03:37:52.735Z,930.45
2017-10-30T03:38:21.233Z,930.49
2017-10-30T03:38:49.761Z,930.46
2017-10-30T03:39:18.362Z,930.44
2017-10-30T03:39:46.886Z,930.47
2017-10-30T03:40:15.514Z,930.45
2017-10-30T03:40:44.141Z,930.42
2017-10-30T03:41:12.666Z,930.43
2017-10-30T03:41:41.200Z,930.43
2017-10-30T03:42:09.816Z,930.43
2017-10-30T03:42:38.468Z,930.42
2017-10-30T03:43:07.052Z,930.38
2017-10-30T03:43:35.590Z,930.38
2017-10-30T03:44:04.211Z,930.37
2017-10-30T03:44:32.725Z,930.38
2017-10-30T03:45:01.336Z,930.32
2017-10-30T03:45:29.939Z,930.34
2017-10-30T03:45:58.607Z,930.34
2017-10-30T03:46:27.244Z,930.33
2017-10-30T03:46:55.641Z,930.34
2017-10-30T03:47:24.271Z,930.34
2017-10-30T03:47:52.576Z,930.33
2017-10-30T03:48:21.170Z,930.34
2017-10-30T03:48:49.817Z,930.33
2017-10-30T03:49:18.387Z,930.32
2017-10-30T03:49:47.000Z,930.28
2017-10-30T03:50:15.599Z,930.33
2017-10-30T03:50:44.208Z,930.31
2017-10-30T03:51:12.831Z,930.32
2017-10-30T03:51:41.442Z,930.3
2017-10-30T03:52:09.775Z,930.29
2017-10-30T03:52:38.183Z,930.29
2017-10-30T03:53:06.723Z,930.29
2017-10-30T03:53:36.060Z,930.24
2017-10-30T03:54:04.504Z,930.27
2017-10-30T03:54:33.094Z,930.26
2017-10-30T03:55:01.505Z,930.26
2017-10-30T03:55:30.003Z,930.23
2017-10-30T03:55:58.608Z,930.29
2017-10-30T03:56:27.188Z,930.26
2017-10-30T03:56:55.792Z,930.3
2017-10-30T03:57:24.392Z,930.23
2017-10-30T03:57:52.985Z,930.28
2017-10-30T03:58:21.460Z,930.24
2017-10-30T03:58:50.083Z,930.2
2017-10-30T03:59:18.524Z,930.27
2017-10-30T03:59:47.100Z,930.26
2017-10-30T04:00:15.608Z,930.21
2017-10-30T04:00:44.188Z,930.24
2017-10-30T04:01:12.791Z,930.21
2017-10-30T04:01:41.391Z,930.19
2017-10-30T04:02:09.918Z,930.24
2017-10-30T04:02:38.459Z,930.26
2017-10-30T04:03:06.959Z,930.22
2017-10-30T04:03:35.573Z,930.21
2017-10-30T04:04:04.085Z,930.23
2017-10-30T04:04:32.729Z,930.2
2017-10-30T04:05:01.216Z,930.17
2017-10-30T04:05:29.741Z,930.15
2017-10-30T04:05:58.295Z,930.16
2017-10-30T04:06:26.858Z,930.19
2017-10-30T04:06:55.360Z,930.11
2017-10-30T04:07:23.984Z,930.1
2017-10-30T04:07:52.504Z,930.1
2017-10-30T04:08:21.016Z,930.13
2017-10-30T04:08:49.644Z,930.13
2017-10-30T04:09:18.255Z,930.08
2017-10-30T04:09:46.872Z,930.07
2017-10-30T04:10:15.474Z,930.04
2017-10-30T04:10:43.953Z,930.06
2017-10-30T04:11:12.483Z,930.03
2017-10-30T04:11:40.907Z,930
2017-10-30T04:12:09.511Z,930
2017-10-30T04:12:38.030Z,930.02
2017-10-30T04:13:06.555Z,929.98
2017-10-30T04:13:35.074Z,929.98
2017-10-30T04:14:03.694Z,930.01
2017-10-30T04:14:32.345Z,929.96
2017-10-30T04:15:00.793Z,929.98
2017-10-30T04:15:29.275Z,929.96
2017-10-30T04:15:57.878Z,930.01
2017-10-30T04:16:26.392Z,930
2017-10-30T04:16:54.892Z,929.97
2017-10-30T04:17:23.384Z,930.01
2017-10-30T04:17:51.897Z,929.95
2017-10-30T04:18:20.432Z,929.95
2017-10-30T04:18:49.042Z,929.96
2017-10-30T04:19:17.568Z,929.98
2017-10-30T04:19:45.975Z,929.95
2017-10-30T04:20:14.567Z,929.98
2017-10-30T04:20:43.077Z,929.96
2017-10-30T04:21:11.710Z,929.97
2017-10-30T04:21:40.351Z,929.95
2017-10-30T04:22:08.850Z,929.98
2017-10-30T04:22:37.478Z,929.96
2017-10-30T04:23:05.917Z,929.94
2017-10-30T04:23:34.337Z,929.9
2017-10-30T04:24:02.765Z,929.92
2017-10-30T04:24:31.268Z,929.92
2017-10-30T04:24:59.761Z,929.92
2017-10-30T04:25:28.393Z,929.86
2017-10-30T04:25:56.992Z,929.86
2017-10-30T04:26:25.611Z,929.86
2017-10-30T04:26:54.107Z,929.84
2017-10-30T04:27:22.651Z,929.89
2017-10-30T04:27:51.275Z,929.83
2017-10-30T04:28:20.177Z,929.89
2017-10-30T04:28:48.805Z,929.85
2017-10-30T04:29:17.423Z,929.81
2017-10-30T04:29:46.056Z,929.81
2017-10-30T04:30:14.675Z,929.84
2017-10-30T04:30:43.203Z,929.83
2017-10-30T04:31:11.719Z,929.82
2017-10-30T04:31:40.353Z,929.86
2017-10-30T04:32:08.820Z,929.83
2017-10-30T04:32:37.415Z,929.82
2017-10-30T04:33:06.012Z,929.81
2017-10-30T04:33:34.538Z,929.8
2017-10-30T04:34:03.125Z,929.79
2017-10-30T04:34:31.707Z,929.77
2017-10-30T04:35:00.231Z,929.81
2017-10-30T04:35:28.816Z,929.82
2017-10-30T04:35:57.429Z,929.8
2017-10-30T04:36:25.996Z,929.81
2017-10-30T04:36:54.492Z,929.79
2017-10-30T04:37:22.906Z,929.82
2017-10-30T04:37:51.510Z,929.82
2017-10-30T04:38:20.113Z,929.84
2017-10-30T04:38:48.730Z,929.87
2017-10-30T04:39:17.235Z,929.87
2017-10-30T04:39:45.737Z,929.86
2017-10-30T04:40:14.355Z,929.87
2017-10-30T04:40:42.937Z,929.88
2017-10-30T04:41:11.449Z,929.9
2017-10-30T04:41:39.959Z,929.89
2017-10-30T04:42:08.472Z,929.89
2017-10-30T04:42:37.070Z,929.85
2017-10-30T04:43:05.462Z,929.9
2017-10-30T04:43:33.869Z,929.85
2017-10-30T04:44:02.437Z,929.88
2017-10-30T04:44:31.049Z,929.91
2017-10-30T04:44:59.677Z,929.9
2017-10-30T04:45:28.198Z,929.9
2017-10-30T04:45:56.738Z,929.87
2017-10-30T04:46:25.313Z,929.92
2017-10-30T04:46:53.938Z,929.86
2017-10-30T04:47:22.458Z,929.84
2017-10-30T04:47:50.974Z,929.86
2017-10-30T04:48:19.415Z,929.85
2017-10-30T04:48:48.016Z,929.86
2017-10-30T04:49:16.513Z,929.84
2017-10-30T04:49:45.114Z,929.82
2017-10-30T04:50:13.621Z,929.79
2017-10-30T04:50:42.059Z,929.78
2017-10-30T04:51:10.670Z,929.78
2017-10-30T04:51:39.099Z,929.79
2017-10-30T04:52:07.620Z,929.74
2017-10-30T04:52:36.010Z,929.75
2017-10-30T04:53:04.632Z,929.77
2017-10-30T04:53:33.260Z,929.83
2017-10-30T04:54:01.886Z,929.8
2017-10-30T04:54:30.285Z,929.8
2017-10-30T04:54:58.885Z,929.85
2017-10-30T04:55:27.477Z,929.83
2017-10-30T04:55:55.983Z,929.82
2017-10-30T04:56:24.498Z,929.78
2017-10-30T04:56:53.004Z,929.82
2017-10-30T04:57:21.539Z,929.8
2017-10-30T04:57:50.127Z,929.84
2017-10-30T04:58:18.760Z,929.81
2017-10-30T04:58:47.075Z,929.81
2017-10-30T04:59:15.704Z,929.83
2017-10-30T04:59:44.309Z,929.78
2017-10-30T05:00:12.937Z,929.82
2017-10-30T05:00:41.455Z,929.82
2017-10-30T05:01:09.985Z,929.84
2017-10-30T05:01:38.489Z,929.81
2017-10-30T05:02:06.871Z,929.84
2017-10-30T05:02:35.296Z,929.86
2017-10-30T05:03:03.832Z,929.81
2017-10-30T05:03:32.448Z,929.82
2017-10-30T05:04:01.064Z,929.82
2017-10-30T05:04:29.571Z,929.81
2017-10-30T05:04:57.987Z,929.85
2017-10-30T05:05:26.595Z,929.83
2017-10-30T05:05:55.198Z,929.8
2017-10-30T05:06:23.956Z,929.82
2017-10-30T05:06:52.552Z,929.8
2017-10-30T05:07:21.072Z,929.81
2017-10-30T05:07:49.608Z,929.79
2017-10-30T05:08:18.107Z,929.8
2017-10-30T05:08:46.731Z,929.81
2017-10-30T05:09:15.358Z,929.86
2017-10-30T05:09:43.985Z,929.8
2017-10-30T05:10:12.521Z,929.81
2017-10-30T05:10:41.150Z,929.81
2017-10-30T05:11:09.779Z,929.81
2017-10-30T05:11:38.397Z,929.81
2017-10-30T05:12:06.891Z,929.81
2017-10-30T05:12:35.369Z,929.78
2017-10-30T05:13:03.871Z,929.77
2017-10-30T05:13:32.497Z,929.82
2017-10-30T05:14:01.124Z,929.84
2017-10-30T05:14:29.627Z,929.84
2017-10-30T05:14:58.126Z,929.85
2017-10-30T05:15:26.747Z,929.83
2017-10-30T05:15:55.243Z,929.84
2017-10-30T05:16:23.832Z,929.83
2017-10-30T05:16:52.358Z,929.81
2017-10-30T05:17:20.940Z,929.85
2017-10-30T05:17:49.555Z,929.85
2017-10-30T05:18:18.163Z,929.82
2017-10-30T05:18:46.588Z,929.8
2017-10-30T05:19:15.220Z,929.84
2017-10-30T05:19:43.840Z,929.82
2017-10-30T05:20:12.426Z,929.8
2017-10-30T05:20:40.939Z,929.82
2017-10-30T05:21:09.565Z,929.84
2017-10-30T05:21:38.078Z,929.8
2017-10-30T05:22:06.719Z,929.8
2017-10-30T05:22:35.378Z,929.77
2017-10-30T05:23:03.984Z,929.8
2017-10-30T05:23:32.607Z,929.8
2017-10-30T05:24:01.106Z,929.8
2017-10-30T05:24:29.634Z,929.78
2017-10-30T05:24:58.107Z,929.81
2017-10-30T05:25:26.640Z,929.75
2017-10-30T05:25:55.175Z,929.73
2017-10-30T05:26:23.693Z,929.75
2017-10-30T05:26:52.302Z,929.78
2017-10-30T05:27:20.931Z,929.82
2017-10-30T05:27:49.535Z,929.77
2017-10-30T05:28:18.139Z,929.79
2017-10-30T05:28:46.635Z,929.77
2017-10-30T05:29:15.233Z,929.76
2017-10-30T05:29:43.741Z,929.71
2017-10-30T05:30:12.271Z,929.73
2017-10-30T05:30:40.779Z,929.69
2017-10-30T05:31:09.400Z,929.7
2017-10-30T05:31:38.014Z,929.69
2017-10-30T05:32:06.640Z,929.67
2017-10-30T05:32:35.261Z,929.62
2017-10-30T05:33:03.794Z,929.64
2017-10-30T05:33:32.265Z,929.62
2017-10-30T05:34:00.891Z,929.63
2017-10-30T05:34:29.305Z,929.65
2017-10-30T05:34:57.911Z,929.61
2017-10-30T05:35:26.397Z,929.63
2017-10-30T05:35:55.011Z,929.64
2017-10-30T05:36:23.615Z,929.63
2017-10-30T05:36:52.338Z,929.66
2017-10-30T05:37:20.957Z,929.67
2017-10-30T05:37:49.533Z,929.68
2017-10-30T05:38:18.151Z,929.7
2017-10-30T05:38:46.659Z,929.72
2017-10-30T05:39:15.085Z,929.69
2017-10-30T05:39:43.570Z,929.64
2017-10-30T05:40:12.194Z,929.68
2017-10-30T05:40:40.824Z,929.7
2017-10-30T05:41:09.443Z,929.69
2017-10-30T05:41:37.976Z,929.69
2017-10-30T05:42:06.600Z,929.65
2017-10-30T05:42:35.121Z,929.64
2017-10-30T05:43:03.630Z,929.65
2017-10-30T05:43:32.143Z,929.63
2017-10-30T05:44:00.697Z,929.59
2017-10-30T05:44:29.126Z,929.57
2017-10-30T05:44:57.538Z,929.58
2017-10-30T05:45:26.148Z,929.57
2017-10-30T05:45:54.755Z,929.59
2017-10-30T05:46:23.365Z,929.58
2017-10-30T05:46:51.755Z,929.59
2017-10-30T05:47:20.286Z,929.58
2017-10-30T05:47:48.912Z,929.57
2017-10-30T05:48:17.512Z,929.57
2017-10-30T05:48:46.038Z,929.59
2017-10-30T05:49:14.513Z,929.6
2017-10-30T05:49:43.108Z,929.65
2017-10-30T05:50:11.708Z,929.67
2017-10-30T05:50:40.324Z,929.67
2017-10-30T05:51:08.838Z,929.64
2017-10-30T05:51:37.445Z,929.67
2017-10-30T05:52:05.953Z,929.71
2017-10-30T05:52:34.463Z,929.69
2017-10-30T05:53:04.346Z,929.71
2017-10-30T05:53:34.240Z,929.69
2017-10-30T05:54:02.758Z,929.72
2017-10-30T05:54:31.292Z,929.69
2017-10-30T05:54:59.685Z,929.7
2017-10-30T05:55:28.313Z,929.71
2017-10-30T05:55:56.832Z,929.73
2017-10-30T05:56:25.258Z,929.75
2017-10-30T05:56:53.775Z,929.72
2017-10-30T05:57:22.388Z,929.72
2017-10-30T05:57:50.901Z,929.67
2017-10-30T05:58:19.521Z,929.72
2017-10-30T05:58:48.144Z,929.72
2017-10-30T05:59:16.743Z,929.75